sensor_id;sensor_type;location;lat;lon;timestamp;pressure;altitude;pressure_sealevel;temperature;humidity
17525;BME280;40431;52.198;9.902;2023-09-07T00:00:51;101330.63;;;19.02;97.96
17525;BME280;40431;52.198;9.902;2023-09-07T00:03:17;101334.56;;;19.00;99.00
17525;BME280;40431;52.198;9.902;2023-09-07T00:05:44;101332.94;;;18.97;99.15
17525;BME280;40431;52.198;9.902;2023-09-07T00:08:12;101331.03;;;18.98;99.15
17525;BME280;40431;52.198;9.902;2023-09-07T00:10:39;101339.16;;;18.99;99.96
17525;BME280;40431;52.198;9.902;2023-09-07T00:13:05;101335.78;;;18.96;99.31
17525;BME280;40431;52.198;9.902;2023-09-07T00:15:36;101344.16;;;18.94;99.15
17525;BME280;40431;52.198;9.902;2023-09-07T00:18:03;101339.69;;;18.93;100.00
17525;BME280;40431;52.198;9.902;2023-09-07T00:20:30;101340.56;;;18.94;100.00
17525;BME280;40431;52.198;9.902;2023-09-07T00:22:58;101333.56;;;18.90;100.00
17525;BME280;40431;52.198;9.902;2023-09-07T00:25:27;101339.28;;;18.86;99.34
17525;BME280;40431;52.198;9.902;2023-09-07T00:27:53;101340.44;;;18.84;96.25
17525;BME280;40431;52.198;9.902;2023-09-07T00:30:20;101327.22;;;18.66;97.77
17525;BME280;40431;52.198;9.902;2023-09-07T00:32:47;101337.06;;;18.69;99.57
17525;BME280;40431;52.198;9.902;2023-09-07T00:35:13;101332.59;;;18.57;98.67
17525;BME280;40431;52.198;9.902;2023-09-07T00:37:40;101341.09;;;18.53;98.90
17525;BME280;40431;52.198;9.902;2023-09-07T00:40:07;101334.13;;;18.49;99.65
17525;BME280;40431;52.198;9.902;2023-09-07T00:42:36;101339.97;;;18.45;100.00
17525;BME280;40431;52.198;9.902;2023-09-07T00:45:03;101340.09;;;18.43;100.00
17525;BME280;40431;52.198;9.902;2023-09-07T00:47:30;101334.38;;;18.35;100.00
17525;BME280;40431;52.198;9.902;2023-09-07T00:49:59;101328.63;;;18.38;100.00
17525;BME280;40431;52.198;9.902;2023-09-07T00:52:27;101330.75;;;18.34;100.00
17525;BME280;40431;52.198;9.902;2023-09-07T00:54:53;101330.00;;;18.32;100.00
17525;BME280;40431;52.198;9.902;2023-09-07T00:57:20;101331.63;;;18.35;100.00
17525;BME280;40431;52.198;9.902;2023-09-07T00:59:48;101326.00;;;18.25;100.00
17525;BME280;40431;52.198;9.902;2023-09-07T01:02:14;101330.13;;;18.19;100.00
17525;BME280;40431;52.198;9.902;2023-09-07T01:04:41;101323.63;;;18.09;100.00
17525;BME280;40431;52.198;9.902;2023-09-07T01:07:13;101334.59;;;18.09;100.00
17525;BME280;40431;52.198;9.902;2023-09-07T01:09:43;101331.72;;;18.11;100.00
17525;BME280;40431;52.198;9.902;2023-09-07T01:12:14;101337.47;;;18.08;100.00
17525;BME280;40431;52.198;9.902;2023-09-07T01:14:40;101334.09;;;18.04;100.00
17525;BME280;40431;52.198;9.902;2023-09-07T01:17:09;101328.88;;;18.01;100.00
17525;BME280;40431;52.198;9.902;2023-09-07T01:19:35;101323.13;;;17.93;100.00
17525;BME280;40431;52.198;9.902;2023-09-07T01:22:03;101330.38;;;17.94;100.00
17525;BME280;40431;52.198;9.902;2023-09-07T01:24:31;101326.81;;;17.92;100.00
17525;BME280;40431;52.198;9.902;2023-09-07T01:27:00;101329.56;;;17.92;100.00
17525;BME280;40431;52.198;9.902;2023-09-07T01:29:28;101324.09;;;17.92;100.00
17525;BME280;40431;52.198;9.902;2023-09-07T01:31:55;101321.59;;;17.89;100.00
17525;BME280;40431;52.198;9.902;2023-09-07T01:34:22;101325.31;;;17.88;100.00
17525;BME280;40431;52.198;9.902;2023-09-07T01:36:48;101321.81;;;17.85;100.00
17525;BME280;40431;52.198;9.902;2023-09-07T01:39:16;101329.81;;;17.89;100.00
17525;BME280;40431;52.198;9.902;2023-09-07T01:41:43;101324.22;;;17.90;100.00
17525;BME280;40431;52.198;9.902;2023-09-07T01:44:09;101319.06;;;17.85;100.00
17525;BME280;40431;52.198;9.902;2023-09-07T01:46:36;101314.84;;;17.81;100.00
17525;BME280;40431;52.198;9.902;2023-09-07T01:49:02;101323.31;;;17.78;100.00
17525;BME280;40431;52.198;9.902;2023-09-07T01:51:29;101329.66;;;17.79;100.00
17525;BME280;40431;52.198;9.902;2023-09-07T01:53:55;101325.28;;;17.76;100.00
17525;BME280;40431;52.198;9.902;2023-09-07T01:56:23;101332.28;;;17.69;100.00
17525;BME280;40431;52.198;9.902;2023-09-07T01:58:50;101336.25;;;17.65;100.00
17525;BME280;40431;52.198;9.902;2023-09-07T02:01:21;101330.25;;;17.60;100.00
17525;BME280;40431;52.198;9.902;2023-09-07T02:03:48;101334.22;;;17.56;100.00
17525;BME280;40431;52.198;9.902;2023-09-07T02:06:14;101334.34;;;17.54;100.00
17525;BME280;40431;52.198;9.902;2023-09-07T02:08:41;101340.09;;;17.51;100.00
17525;BME280;40431;52.198;9.902;2023-09-07T02:11:07;101337.44;;;17.49;100.00
17525;BME280;40431;52.198;9.902;2023-09-07T02:13:35;101325.97;;;17.44;100.00
17525;BME280;40431;52.198;9.902;2023-09-07T02:16:03;101329.94;;;17.40;100.00
17525;BME280;40431;52.198;9.902;2023-09-07T02:18:31;101330.97;;;17.39;100.00
17525;BME280;40431;52.198;9.902;2023-09-07T02:21:01;101329.41;;;17.35;100.00
17525;BME280;40431;52.198;9.902;2023-09-07T02:23:27;101324.94;;;17.34;100.00
17525;BME280;40431;52.198;9.902;2023-09-07T02:25:54;101326.19;;;17.30;100.00
17525;BME280;40431;52.198;9.902;2023-09-07T02:28:21;101322.69;;;17.28;100.00
17525;BME280;40431;52.198;9.902;2023-09-07T02:30:49;101326.41;;;17.27;100.00
17525;BME280;40431;52.198;9.902;2023-09-07T02:33:15;101324.78;;;17.24;100.00
17525;BME280;40431;52.198;9.902;2023-09-07T02:35:42;101332.13;;;17.24;100.00
17525;BME280;40431;52.198;9.902;2023-09-07T02:38:09;101332.25;;;17.22;100.00
17525;BME280;40431;52.198;9.902;2023-09-07T02:40:40;101332.13;;;17.24;100.00
17525;BME280;40431;52.198;9.902;2023-09-07T02:43:07;101326.91;;;17.21;100.00
17525;BME280;40431;52.198;9.902;2023-09-07T02:45:34;101330.38;;;17.23;100.00
17525;BME280;40431;52.198;9.902;2023-09-07T02:48:01;101331.34;;;17.22;100.00
17525;BME280;40431;52.198;9.902;2023-09-07T02:50:30;101325.38;;;17.16;100.00
17525;BME280;40431;52.198;9.902;2023-09-07T02:52:57;101329.09;;;17.15;100.00
17525;BME280;40431;52.198;9.902;2023-09-07T02:55:23;101331.56;;;17.07;100.00
17525;BME280;40431;52.198;9.902;2023-09-07T02:57:50;101319.06;;;17.03;100.00
17525;BME280;40431;52.198;9.902;2023-09-07T03:00:17;101325.69;;;17.00;100.00
17525;BME280;40431;52.198;9.902;2023-09-07T03:02:43;101329.75;;;16.95;100.00
17525;BME280;40431;52.198;9.902;2023-09-07T03:05:11;101322.75;;;16.91;100.00
17525;BME280;40431;52.198;9.902;2023-09-07T03:07:38;101325.81;;;16.86;100.00
17525;BME280;40431;52.198;9.902;2023-09-07T03:10:06;101320.56;;;16.83;100.00
17525;BME280;40431;52.198;9.902;2023-09-07T03:12:33;101318.81;;;16.82;100.00
17525;BME280;40431;52.198;9.902;2023-09-07T03:15:00;101324.72;;;16.89;100.00
17525;BME280;40431;52.198;9.902;2023-09-07T03:17:28;101325.50;;;16.91;100.00
17525;BME280;40431;52.198;9.902;2023-09-07T03:19:55;101322.75;;;16.91;100.00
17525;BME280;40431;52.198;9.902;2023-09-07T03:22:23;101321.00;;;16.90;100.00
17525;BME280;40431;52.198;9.902;2023-09-07T03:24:50;101321.97;;;16.89;100.00
17525;BME280;40431;52.198;9.902;2023-09-07T03:27:17;101319.56;;;16.84;100.00
17525;BME280;40431;52.198;9.902;2023-09-07T03:29:45;101323.94;;;16.86;100.00
17525;BME280;40431;52.198;9.902;2023-09-07T03:32:12;101329.66;;;16.83;100.00
17525;BME280;40431;52.198;9.902;2023-09-07T03:34:39;101326.03;;;16.83;100.00
17525;BME280;40431;52.198;9.902;2023-09-07T03:37:05;101328.22;;;16.78;100.00
17525;BME280;40431;52.198;9.902;2023-09-07T03:39:33;101332.09;;;16.75;100.00
17525;BME280;40431;52.198;9.902;2023-09-07T03:41:59;101329.38;;;16.75;100.00
17525;BME280;40431;52.198;9.902;2023-09-07T03:44:26;101328.72;;;16.72;100.00
17525;BME280;40431;52.198;9.902;2023-09-07T03:46:52;101326.66;;;16.62;100.00
17525;BME280;40431;52.198;9.902;2023-09-07T03:49:18;101332.03;;;16.64;100.00
17525;BME280;40431;52.198;9.902;2023-09-07T03:51:45;101333.97;;;16.62;100.00
17525;BME280;40431;52.198;9.902;2023-09-07T03:54:11;101343.94;;;16.63;100.00
17525;BME280;40431;52.198;9.902;2023-09-07T03:56:39;101340.22;;;16.64;100.00
17525;BME280;40431;52.198;9.902;2023-09-07T03:59:06;101339.38;;;16.63;100.00
17525;BME280;40431;52.198;9.902;2023-09-07T04:01:32;101340.47;;;16.61;100.00
17525;BME280;40431;52.198;9.902;2023-09-07T04:03:58;101341.91;;;16.53;100.00
17525;BME280;40431;52.198;9.902;2023-09-07T04:06:25;101333.91;;;16.50;100.00
17525;BME280;40431;52.198;9.902;2023-09-07T04:08:51;101334.16;;;16.47;100.00
17525;BME280;40431;52.198;9.902;2023-09-07T04:11:18;101332.41;;;16.46;100.00
17525;BME280;40431;52.198;9.902;2023-09-07T04:13:46;101335.47;;;16.42;100.00
17525;BME280;40431;52.198;9.902;2023-09-07T04:16:12;101346.41;;;16.42;100.00
17525;BME280;40431;52.198;9.902;2023-09-07T04:18:39;101347.41;;;16.41;100.00
17525;BME280;40431;52.198;9.902;2023-09-07T04:21:05;101340.81;;;16.43;100.00
17525;BME280;40431;52.198;9.902;2023-09-07T04:23:32;101343.56;;;16.43;100.00
17525;BME280;40431;52.198;9.902;2023-09-07T04:26:04;101347.41;;;16.41;100.00
17525;BME280;40431;52.198;9.902;2023-09-07T04:28:30;101345.78;;;16.38;100.00
17525;BME280;40431;52.198;9.902;2023-09-07T04:30:59;101346.75;;;16.37;100.00
17525;BME280;40431;52.198;9.902;2023-09-07T04:33:25;101345.97;;;16.35;100.00
17525;BME280;40431;52.198;9.902;2023-09-07T04:35:52;101345.13;;;16.34;100.00
17525;BME280;40431;52.198;9.902;2023-09-07T04:38:18;101347.06;;;16.32;100.00
17525;BME280;40431;52.198;9.902;2023-09-07T04:40:45;101351.69;;;16.32;100.00
17525;BME280;40431;52.198;9.902;2023-09-07T04:43:11;101351.69;;;16.32;100.00
17525;BME280;40431;52.198;9.902;2023-09-07T04:45:45;101354.75;;;16.27;100.00
17525;BME280;40431;52.198;9.902;2023-09-07T04:48:13;101345.66;;;16.27;100.00
17525;BME280;40431;52.198;9.902;2023-09-07T04:50:40;101347.88;;;16.09;100.00
17525;BME280;40431;52.198;9.902;2023-09-07T04:53:06;101352.47;;;16.08;100.00
17525;BME280;40431;52.198;9.902;2023-09-07T04:55:37;101352.47;;;16.08;100.00
17525;BME280;40431;52.198;9.902;2023-09-07T04:58:03;101358.72;;;16.10;100.00
17525;BME280;40431;52.198;9.902;2023-09-07T05:00:30;101353.91;;;16.01;100.00
17525;BME280;40431;52.198;9.902;2023-09-07T05:02:56;101360.59;;;15.97;100.00
17525;BME280;40431;52.198;9.902;2023-09-07T05:05:24;101358.94;;;15.94;100.00
17525;BME280;40431;52.198;9.902;2023-09-07T05:07:51;101356.97;;;15.96;100.00
17525;BME280;40431;52.198;9.902;2023-09-07T05:10:19;101361.44;;;15.97;100.00
17525;BME280;40431;52.198;9.902;2023-09-07T05:12:45;101365.72;;;16.01;100.00
17525;BME280;40431;52.198;9.902;2023-09-07T05:15:12;101354.09;;;15.98;100.00
17525;BME280;40431;52.198;9.902;2023-09-07T05:17:38;101361.34;;;15.99;100.00
17525;BME280;40431;52.198;9.902;2023-09-07T05:20:06;101364.31;;;15.96;100.00
17525;BME280;40431;52.198;9.902;2023-09-07T05:22:35;101357.19;;;15.93;100.00
17525;BME280;40431;52.198;9.902;2023-09-07T05:25:05;101369.22;;;15.91;100.00
17525;BME280;40431;52.198;9.902;2023-09-07T05:27:31;101373.59;;;15.93;100.00
17525;BME280;40431;52.198;9.902;2023-09-07T05:29:58;101364.31;;;15.96;100.00
17525;BME280;40431;52.198;9.902;2023-09-07T05:32:25;101365.03;;;15.98;100.00
17525;BME280;40431;52.198;9.902;2023-09-07T05:34:52;101364.31;;;15.96;100.00
17525;BME280;40431;52.198;9.902;2023-09-07T05:37:18;101363.41;;;15.95;100.00
17525;BME280;40431;52.198;9.902;2023-09-07T05:39:46;101365.16;;;15.96;100.00
17525;BME280;40431;52.198;9.902;2023-09-07T05:42:13;101363.53;;;15.94;100.00
17525;BME280;40431;52.198;9.902;2023-09-07T05:44:40;101361.56;;;15.96;100.00
17525;BME280;40431;52.198;9.902;2023-09-07T05:47:06;101359.38;;;16.01;100.00
17525;BME280;40431;52.198;9.902;2023-09-07T05:49:33;101359.81;;;16.08;100.00
17525;BME280;40431;52.198;9.902;2023-09-07T05:51:59;101360.44;;;16.11;100.00
17525;BME280;40431;52.198;9.902;2023-09-07T05:54:26;101364.41;;;16.20;100.00
17525;BME280;40431;52.198;9.902;2023-09-07T05:56:54;101364.81;;;16.27;100.00
17525;BME280;40431;52.198;9.902;2023-09-07T05:59:21;101364.41;;;16.33;100.00
17525;BME280;40431;52.198;9.902;2023-09-07T06:01:48;101352.78;;;16.42;100.00
17525;BME280;40431;52.198;9.902;2023-09-07T06:04:14;101361.97;;;16.54;100.00
17525;BME280;40431;52.198;9.902;2023-09-07T06:06:41;101363.25;;;16.61;100.00
17525;BME280;40431;52.198;9.902;2023-09-07T06:09:07;101357.53;;;16.64;100.00
17525;BME280;40431;52.198;9.902;2023-09-07T06:11:34;101367.16;;;16.70;100.00
17525;BME280;40431;52.198;9.902;2023-09-07T06:14:02;101364.25;;;16.84;100.00
17525;BME280;40431;52.198;9.902;2023-09-07T06:16:29;101367.88;;;16.98;100.00
17525;BME280;40431;52.198;9.902;2023-09-07T06:18:55;101376.16;;;17.09;100.00
17525;BME280;40431;52.198;9.902;2023-09-07T06:21:22;101370.22;;;17.15;100.00
17525;BME280;40431;52.198;9.902;2023-09-07T06:23:48;101377.38;;;17.29;100.00
17525;BME280;40431;52.198;9.902;2023-09-07T06:26:15;101379.66;;;17.35;100.00
17525;BME280;40431;52.198;9.902;2023-09-07T06:28:43;101378.06;;;17.44;100.00
17525;BME280;40431;52.198;9.902;2023-09-07T06:31:11;101383.31;;;17.47;100.00
17525;BME280;40431;52.198;9.902;2023-09-07T06:33:37;101386.34;;;17.56;100.00
17525;BME280;40431;52.198;9.902;2023-09-07T06:36:04;101396.59;;;17.65;100.00
17525;BME280;40431;52.198;9.902;2023-09-07T06:38:31;101393.00;;;17.76;100.00
17525;BME280;40431;52.198;9.902;2023-09-07T06:40:58;101392.28;;;17.85;100.00
17525;BME280;40431;52.198;9.902;2023-09-07T06:43:25;101385.97;;;17.96;100.00
17525;BME280;40431;52.198;9.902;2023-09-07T06:45:51;101391.97;;;18.01;100.00
17525;BME280;40431;52.198;9.902;2023-09-07T06:48:19;101387.25;;;18.14;100.00
17525;BME280;40431;52.198;9.902;2023-09-07T06:50:45;101396.50;;;18.25;100.00
17525;BME280;40431;52.198;9.902;2023-09-07T06:53:12;101393.28;;;18.31;100.00
17525;BME280;40431;52.198;9.902;2023-09-07T06:55:38;101383.78;;;18.35;100.00
17525;BME280;40431;52.198;9.902;2023-09-07T06:58:05;101390.03;;;18.37;100.00
17525;BME280;40431;52.198;9.902;2023-09-07T07:00:31;101385.41;;;18.49;100.00
17525;BME280;40431;52.198;9.902;2023-09-07T07:02:58;101393.66;;;18.60;100.00
17525;BME280;40431;52.198;9.902;2023-09-07T07:05:26;101390.50;;;18.65;100.00
17525;BME280;40431;52.198;9.902;2023-09-07T07:07:54;101388.00;;;18.73;100.00
17525;BME280;40431;52.198;9.902;2023-09-07T07:10:21;101388.63;;;18.77;100.00
17525;BME280;40431;52.198;9.902;2023-09-07T07:12:47;101399.72;;;18.86;100.00
17525;BME280;40431;52.198;9.902;2023-09-07T07:15:14;101398.75;;;18.99;100.00
17525;BME280;40431;52.198;9.902;2023-09-07T07:17:40;101382.97;;;19.12;100.00
17525;BME280;40431;52.198;9.902;2023-09-07T07:20:08;101384.19;;;19.19;98.81
17525;BME280;40431;52.198;9.902;2023-09-07T07:22:35;101382.41;;;19.30;99.21
17525;BME280;40431;52.198;9.902;2023-09-07T07:25:02;101374.25;;;19.40;98.89
17525;BME280;40431;52.198;9.902;2023-09-07T07:27:30;101392.59;;;19.50;100.00
17525;BME280;40431;52.198;9.902;2023-09-07T07:29:57;101389.78;;;19.62;99.08
17525;BME280;40431;52.198;9.902;2023-09-07T07:32:23;101385.47;;;19.69;99.20
17525;BME280;40431;52.198;9.902;2023-09-07T07:34:50;101383.47;;;19.82;100.00
17525;BME280;40431;52.198;9.902;2023-09-07T07:37:16;101383.38;;;19.94;100.00
17525;BME280;40431;52.198;9.902;2023-09-07T07:39:44;101391.03;;;20.11;98.37
17525;BME280;40431;52.198;9.902;2023-09-07T07:42:11;101395.72;;;20.21;99.02
17525;BME280;40431;52.198;9.902;2023-09-07T07:44:37;101388.38;;;20.31;98.05
17525;BME280;40431;52.198;9.902;2023-09-07T07:47:04;101386.81;;;20.38;97.56
17525;BME280;40431;52.198;9.902;2023-09-07T07:49:30;101389.78;;;20.46;97.68
17525;BME280;40431;52.198;9.902;2023-09-07T07:51:58;101395.47;;;20.55;96.70
17525;BME280;40431;52.198;9.902;2023-09-07T07:54:24;101399.38;;;20.62;96.86
17525;BME280;40431;52.198;9.902;2023-09-07T07:56:52;101396.59;;;20.73;96.03
17525;BME280;40431;52.198;9.902;2023-09-07T07:59:18;101393.69;;;20.84;93.30
17525;BME280;40431;52.198;9.902;2023-09-07T08:01:45;101392.59;;;20.97;93.21
17525;BME280;40431;52.198;9.902;2023-09-07T08:04:12;101394.34;;;21.08;92.27
17525;BME280;40431;52.198;9.902;2023-09-07T08:06:38;101394.34;;;21.17;92.23
17525;BME280;40431;52.198;9.902;2023-09-07T08:09:05;101388.28;;;21.24;90.77
17525;BME280;40431;52.198;9.902;2023-09-07T08:11:31;101382.75;;;21.33;90.95
17525;BME280;40431;52.198;9.902;2023-09-07T08:13:59;101383.50;;;21.45;90.97
17525;BME280;40431;52.198;9.902;2023-09-07T08:16:27;101381.34;;;21.59;89.35
17525;BME280;40431;52.198;9.902;2023-09-07T08:18:53;101370.59;;;21.65;89.37
17525;BME280;40431;52.198;9.902;2023-09-07T08:21:20;101387.16;;;21.75;88.17
17525;BME280;40431;52.198;9.902;2023-09-07T08:23:47;101376.09;;;21.85;87.81
17525;BME280;40431;52.198;9.902;2023-09-07T08:26:13;101371.72;;;21.92;87.76
17525;BME280;40431;52.198;9.902;2023-09-07T08:28:40;101375.19;;;22.04;87.90
17525;BME280;40431;52.198;9.902;2023-09-07T08:31:08;101381.56;;;22.14;87.54
17525;BME280;40431;52.198;9.902;2023-09-07T08:33:36;101374.81;;;22.27;87.07
17525;BME280;40431;52.198;9.902;2023-09-07T08:36:05;101366.72;;;22.35;85.36
17525;BME280;40431;52.198;9.902;2023-09-07T08:38:34;101380.00;;;22.49;84.90
17525;BME280;40431;52.198;9.902;2023-09-07T08:41:01;101370.69;;;22.60;84.57
17525;BME280;40431;52.198;9.902;2023-09-07T08:43:32;101380.19;;;22.76;82.62
17525;BME280;40431;52.198;9.902;2023-09-07T08:46:04;101378.41;;;22.84;81.24
17525;BME280;40431;52.198;9.902;2023-09-07T08:48:38;101377.16;;;22.97;81.60
17525;BME280;40431;52.198;9.902;2023-09-07T08:51:06;101384.06;;;23.11;81.47
17525;BME280;40431;52.198;9.902;2023-09-07T08:53:33;101386.06;;;23.18;80.11
17525;BME280;40431;52.198;9.902;2023-09-07T08:56:01;101377.88;;;23.27;77.83
17525;BME280;40431;52.198;9.902;2023-09-07T08:58:27;101381.00;;;23.32;77.28
17525;BME280;40431;52.198;9.902;2023-09-07T09:00:54;101381.81;;;23.42;78.79
17525;BME280;40431;52.198;9.902;2023-09-07T09:03:23;101380.53;;;23.55;77.52
17525;BME280;40431;52.198;9.902;2023-09-07T09:05:52;101378.88;;;23.62;76.32
17525;BME280;40431;52.198;9.902;2023-09-07T09:08:19;101377.22;;;23.69;76.54
17525;BME280;40431;52.198;9.902;2023-09-07T09:10:58;101366.59;;;23.82;75.78
17525;BME280;40431;52.198;9.902;2023-09-07T09:13:27;101368.72;;;23.89;75.02
17525;BME280;40431;52.198;9.902;2023-09-07T09:15:54;101367.78;;;23.98;73.87
17525;BME280;40431;52.198;9.902;2023-09-07T09:18:20;101374.41;;;24.05;73.96
17525;BME280;40431;52.198;9.902;2023-09-07T09:20:48;101367.19;;;24.12;73.49
17525;BME280;40431;52.198;9.902;2023-09-07T09:23:16;101370.56;;;24.24;73.86
17525;BME280;40431;52.198;9.902;2023-09-07T09:25:43;101363.16;;;24.33;74.19
17525;BME280;40431;52.198;9.902;2023-09-07T09:28:10;101359.75;;;24.47;73.49
17525;BME280;40431;52.198;9.902;2023-09-07T09:30:37;101359.66;;;24.57;74.33
17525;BME280;40431;52.198;9.902;2023-09-07T09:33:05;101348.78;;;24.64;71.53
17525;BME280;40431;52.198;9.902;2023-09-07T09:35:32;101355.75;;;24.68;70.75
17525;BME280;40431;52.198;9.902;2023-09-07T09:38:01;101349.88;;;24.79;70.08
17525;BME280;40431;52.198;9.902;2023-09-07T09:40:32;101348.19;;;24.87;70.94
17525;BME280;40431;52.198;9.902;2023-09-07T09:43:01;101350.44;;;24.99;69.20
17525;BME280;40431;52.198;9.902;2023-09-07T09:45:28;101338.00;;;25.04;67.53
17525;BME280;40431;52.198;9.902;2023-09-07T09:47:55;101342.00;;;25.09;66.66
17525;BME280;40431;52.198;9.902;2023-09-07T09:50:22;101333.69;;;25.17;66.72
17525;BME280;40431;52.198;9.902;2023-09-07T09:52:50;101336.28;;;25.19;67.11
17525;BME280;40431;52.198;9.902;2023-09-07T09:55:18;101336.13;;;25.29;67.41
17525;BME280;40431;52.198;9.902;2023-09-07T09:57:46;101331.13;;;25.41;67.06
17525;BME280;40431;52.198;9.902;2023-09-07T10:00:13;101330.09;;;25.50;65.95
17525;BME280;40431;52.198;9.902;2023-09-07T10:03:00;101332.72;;;25.60;64.19
17525;BME280;40431;52.198;9.902;2023-09-07T10:05:29;101333.72;;;25.67;63.79
17525;BME280;40431;52.198;9.902;2023-09-07T10:08:01;101329.22;;;25.74;63.40
17525;BME280;40431;52.198;9.902;2023-09-07T10:10:33;101323.47;;;25.84;63.96
17525;BME280;40431;52.198;9.902;2023-09-07T10:13:02;101322.59;;;25.92;62.46
17525;BME280;40431;52.198;9.902;2023-09-07T10:15:30;101321.88;;;25.98;64.76
17525;BME280;40431;52.198;9.902;2023-09-07T10:18:06;101320.38;;;26.04;61.75
17525;BME280;40431;52.198;9.902;2023-09-07T10:20:50;101329.19;;;26.07;63.30
17525;BME280;40431;52.198;9.902;2023-09-07T10:23:17;101328.81;;;26.19;63.93
17525;BME280;40431;52.198;9.902;2023-09-07T10:25:47;101317.16;;;26.23;62.40
17525;BME280;40431;52.198;9.902;2023-09-07T10:28:20;101312.47;;;26.24;61.80
17525;BME280;40431;52.198;9.902;2023-09-07T10:30:57;101320.63;;;26.25;61.19
17525;BME280;40431;52.198;9.902;2023-09-07T10:33:24;101315.59;;;26.29;61.09
17525;BME280;40431;52.198;9.902;2023-09-07T10:35:50;101304.13;;;26.32;61.96
17525;BME280;40431;52.198;9.902;2023-09-07T10:38:16;101307.22;;;26.37;60.81
17525;BME280;40431;52.198;9.902;2023-09-07T10:40:44;101312.75;;;26.45;60.82
17525;BME280;40431;52.198;9.902;2023-09-07T10:43:11;101301.75;;;26.52;61.13
17525;BME280;40431;52.198;9.902;2023-09-07T10:45:38;101302.09;;;26.57;61.36
17525;BME280;40431;52.198;9.902;2023-09-07T10:48:05;101303.09;;;26.64;59.26
17525;BME280;40431;52.198;9.902;2023-09-07T10:50:42;101296.28;;;26.67;59.66
17525;BME280;40431;52.198;9.902;2023-09-07T10:53:08;101297.72;;;26.71;60.83
17525;BME280;40431;52.198;9.902;2023-09-07T10:55:36;101291.97;;;26.73;60.04
17525;BME280;40431;52.198;9.902;2023-09-07T10:58:03;101298.72;;;26.78;58.98
17525;BME280;40431;52.198;9.902;2023-09-07T11:00:30;101290.19;;;26.80;58.98
17525;BME280;40431;52.198;9.902;2023-09-07T11:02:57;101284.38;;;26.90;58.59
17525;BME280;40431;52.198;9.902;2023-09-07T11:05:24;101278.97;;;26.96;59.49
17525;BME280;40431;52.198;9.902;2023-09-07T11:07:50;101283.41;;;27.06;59.58
17525;BME280;40431;52.198;9.902;2023-09-07T11:10:17;101283.53;;;27.12;58.04
17525;BME280;40431;52.198;9.902;2023-09-07T11:12:43;101270.78;;;27.18;57.66
17525;BME280;40431;52.198;9.902;2023-09-07T11:15:12;101271.75;;;27.25;58.55
17525;BME280;40431;52.198;9.902;2023-09-07T11:17:38;101269.69;;;27.27;57.00
17525;BME280;40431;52.198;9.902;2023-09-07T11:20:07;101271.88;;;27.32;57.38
17525;BME280;40431;52.198;9.902;2023-09-07T11:22:35;101266.28;;;27.40;57.90
17525;BME280;40431;52.198;9.902;2023-09-07T11:25:04;101258.91;;;27.47;56.78
17525;BME280;40431;52.198;9.902;2023-09-07T11:27:31;101255.09;;;27.48;57.52
17525;BME280;40431;52.198;9.902;2023-09-07T11:29:58;101259.88;;;27.55;57.37
17525;BME280;40431;52.198;9.902;2023-09-07T11:32:33;101261.22;;;27.59;56.16
17525;BME280;40431;52.198;9.902;2023-09-07T11:34:59;101252.22;;;27.57;56.07
17525;BME280;40431;52.198;9.902;2023-09-07T11:37:27;101255.19;;;27.55;55.34
17525;BME280;40431;52.198;9.902;2023-09-07T11:39:54;101255.38;;;27.54;56.84
17525;BME280;40431;52.198;9.902;2023-09-07T11:42:20;101253.75;;;27.59;55.22
17525;BME280;40431;52.198;9.902;2023-09-07T11:44:46;101250.38;;;27.64;55.68
17525;BME280;40431;52.198;9.902;2023-09-07T11:47:13;101255.22;;;27.70;55.08
17525;BME280;40431;52.198;9.902;2023-09-07T11:49:39;101248.50;;;27.79;56.14
17525;BME280;40431;52.198;9.902;2023-09-07T11:52:06;101251.38;;;27.86;53.94
17525;BME280;40431;52.198;9.902;2023-09-07T11:54:34;101246.94;;;27.92;54.93
17525;BME280;40431;52.198;9.902;2023-09-07T11:57:00;101238.59;;;27.92;53.43
17525;BME280;40431;52.198;9.902;2023-09-07T11:59:26;101248.97;;;27.98;55.67
17525;BME280;40431;52.198;9.902;2023-09-07T12:01:54;101235.56;;;28.02;54.88
17525;BME280;40431;52.198;9.902;2023-09-07T12:04:21;101243.34;;;28.06;54.57
17525;BME280;40431;52.198;9.902;2023-09-07T12:06:47;101243.63;;;28.11;54.60
17525;BME280;40431;52.198;9.902;2023-09-07T12:09:13;101242.38;;;28.14;53.56
17525;BME280;40431;52.198;9.902;2023-09-07T12:11:43;101235.06;;;28.13;54.12
17525;BME280;40431;52.198;9.902;2023-09-07T12:14:10;101241.78;;;28.19;52.69
17525;BME280;40431;52.198;9.902;2023-09-07T12:16:36;101243.16;;;28.23;54.67
17525;BME280;40431;52.198;9.902;2023-09-07T12:19:02;101237.38;;;28.24;55.13
17525;BME280;40431;52.198;9.902;2023-09-07T12:21:29;101237.84;;;28.28;53.78
17525;BME280;40431;52.198;9.902;2023-09-07T12:23:55;101239.16;;;28.32;52.54
17525;BME280;40431;52.198;9.902;2023-09-07T12:26:22;101226.75;;;28.35;53.80
17525;BME280;40431;52.198;9.902;2023-09-07T12:28:49;101240.63;;;28.43;53.52
17525;BME280;40431;52.198;9.902;2023-09-07T12:31:16;101232.72;;;28.46;53.55
17525;BME280;40431;52.198;9.902;2023-09-07T12:33:42;101234.72;;;28.53;53.39
17525;BME280;40431;52.198;9.902;2023-09-07T12:36:09;101227.41;;;28.52;52.47
17525;BME280;40431;52.198;9.902;2023-09-07T12:38:37;101231.72;;;28.54;54.21
17525;BME280;40431;52.198;9.902;2023-09-07T12:41:03;101229.13;;;28.53;52.45
17525;BME280;40431;52.198;9.902;2023-09-07T12:43:30;101232.72;;;28.46;52.19
17525;BME280;40431;52.198;9.902;2023-09-07T12:45:58;101232.91;;;28.45;52.63